createdAt,value
2023-02-03T00:01:06.500Z,44.3
2023-02-03T00:06:24.984Z,43.9
2023-02-03T00:11:43.794Z,44.4
2023-02-03T00:17:02.236Z,44.1
2023-02-03T00:22:20.419Z,44.3
2023-02-03T00:27:38.876Z,43.8
2023-02-03T00:32:57.162Z,44.3
2023-02-03T00:37:59.493Z,43.9
2023-02-03T00:43:18.281Z,43.9
2023-02-03T00:48:36.804Z,43.7
2023-02-03T00:53:55.035Z,43.7
2023-02-03T00:59:13.562Z,44.1
2023-02-03T01:04:32.073Z,43.9
2023-02-03T01:09:50.291Z,44.1
2023-02-03T01:15:09.224Z,43.3
2023-02-03T01:20:28.373Z,44
2023-02-03T01:25:46.716Z,44.1
2023-02-03T01:31:05.764Z,44
2023-02-03T01:36:24.645Z,44
2023-02-03T01:41:43.452Z,43.3
2023-02-03T01:47:01.971Z,43.5
2023-02-03T01:52:20.400Z,43.9
2023-02-03T01:57:38.319Z,43.3
2023-02-03T02:02:57.028Z,43.7
2023-02-03T02:08:15.307Z,43.9
2023-02-03T02:13:33.517Z,43.2
2023-02-03T02:18:52.039Z,44
2023-02-03T02:24:10.512Z,43.7
2023-02-03T02:29:28.898Z,43.2
2023-02-03T02:34:47.148Z,43.9
2023-02-03T02:40:05.640Z,43.7
2023-02-03T02:45:23.870Z,43.2
2023-02-03T02:50:42.401Z,44.2
2023-02-03T02:56:00.901Z,43.2
2023-02-03T03:01:19.463Z,43.2
2023-02-03T03:06:37.735Z,43.9
2023-02-03T03:11:55.933Z,43
2023-02-03T03:17:14.450Z,43.8
2023-02-03T03:22:32.949Z,43.1
2023-02-03T03:27:51.626Z,43.7
2023-02-03T03:33:10.236Z,43.9
2023-02-03T03:38:28.491Z,43.8
2023-02-03T03:43:46.946Z,43.6
2023-02-03T03:49:05.714Z,43
2023-02-03T03:54:24.380Z,43.1
2023-02-03T03:59:42.934Z,43.7
2023-02-03T04:05:01.421Z,43.4
2023-02-03T04:10:19.671Z,43.6
2023-02-03T04:15:38.296Z,43.1
2023-02-03T04:20:56.804Z,43.1
2023-02-03T04:26:14.754Z,43.7
2023-02-03T04:31:33.672Z,43.9
2023-02-03T04:36:52.139Z,44
2023-02-03T04:42:10.630Z,43.3
2023-02-03T04:47:28.812Z,43.1
2023-02-03T04:52:47.040Z,43
2023-02-03T04:58:06.148Z,42.6
2023-02-03T05:03:27.013Z,43
2023-02-03T05:08:45.055Z,43
2023-02-03T05:14:03.276Z,42.9
2023-02-03T05:19:21.741Z,43.2
2023-02-03T05:24:40.260Z,42.5
2023-02-03T05:29:58.759Z,43
2023-02-03T05:35:17.235Z,42.6
2023-02-03T05:40:35.725Z,42.5
2023-02-03T05:45:54.420Z,44.5
2023-02-03T05:51:12.399Z,45.5
2023-02-03T05:56:31.162Z,47.3
2023-02-03T06:01:49.678Z,46.5
2023-02-03T06:07:07.913Z,47
2023-02-03T06:12:29.704Z,46.8
2023-02-03T06:17:48.194Z,48.1
2023-02-03T06:23:06.922Z,48.2
2023-02-03T06:28:25.229Z,48.7
2023-02-03T06:33:43.769Z,47.9
2023-02-03T06:39:02.328Z,48.5
2023-02-03T06:44:20.812Z,47.5
2023-02-03T06:49:39.586Z,48.5
2023-02-03T06:54:58.073Z,47.3
2023-02-03T07:00:19.717Z,47.2
2023-02-03T07:05:38.555Z,47
2023-02-03T07:10:56.871Z,46.7
2023-02-03T07:16:15.779Z,46.4
2023-02-03T07:21:34.079Z,47.4
2023-02-03T07:26:52.399Z,47.4
2023-02-03T07:32:10.810Z,47.3
2023-02-03T07:37:29.462Z,47.7
2023-02-03T07:42:47.987Z,47.5
2023-02-03T07:48:06.747Z,47.1
2023-02-03T07:53:25.028Z,47.1
2023-02-03T07:58:43.574Z,46.1
2023-02-03T08:04:02.350Z,46.3
2023-02-03T08:09:20.560Z,45.6
2023-02-03T08:14:39.365Z,46.2
2023-02-03T08:19:58.172Z,45.5
2023-02-03T08:25:17.977Z,45.1
2023-02-03T08:30:36.505Z,44.9
2023-02-03T08:35:55.260Z,44.9
2023-02-03T08:41:13.807Z,44.2
2023-02-03T08:46:32.300Z,44.7
2023-02-03T08:51:51.082Z,44.4
2023-02-03T08:57:09.960Z,44.3
2023-02-03T09:02:28.669Z,44
2023-02-03T09:07:47.197Z,43.3
2023-02-03T09:13:05.986Z,43.8
2023-02-03T09:18:24.535Z,43.7
2023-02-03T09:23:42.711Z,42.9
2023-02-03T09:29:01.459Z,43.5
2023-02-03T09:34:20.475Z,43.3
2023-02-03T09:39:39.342Z,43.1
2023-02-03T09:44:57.973Z,43
2023-02-03T09:50:16.162Z,42.2
2023-02-03T09:55:34.127Z,42.1
2023-02-03T10:00:53.492Z,42
2023-02-03T10:06:12.582Z,42.3
2023-02-03T10:11:31.326Z,41.6
2023-02-03T10:16:50.025Z,42.4
2023-02-03T10:22:09.111Z,41.7
2023-02-03T10:27:27.608Z,42
2023-02-03T10:32:46.399Z,41.4
2023-02-03T10:38:04.755Z,41.5
2023-02-03T10:43:22.958Z,41.6
2023-02-03T10:48:41.491Z,41.1
2023-02-03T10:54:00.043Z,40.7
2023-02-03T10:59:18.815Z,41.3
2023-02-03T11:04:22.047Z,39.5
2023-02-03T11:09:40.589Z,36.7
2023-02-03T11:14:59.363Z,34.4
2023-02-03T11:20:18.479Z,34.8
2023-02-03T11:25:37.286Z,37.9
2023-02-03T11:30:56.828Z,39
2023-02-03T11:36:15.822Z,40.1
2023-02-03T11:41:18.453Z,40.7
2023-02-03T11:46:37.352Z,40.4
2023-02-03T11:51:56.250Z,40.6
2023-02-03T11:57:14.977Z,41.5
2023-02-03T12:02:33.950Z,40.8
2023-02-03T12:07:52.751Z,41.6
2023-02-03T12:13:11.667Z,41.3
2023-02-03T12:18:30.460Z,42
2023-02-03T12:23:49.226Z,41.3
2023-02-03T12:29:08.055Z,42.1
2023-02-03T12:34:26.872Z,41.4
2023-02-03T12:39:45.110Z,42.3
2023-02-03T12:45:03.966Z,41.9
2023-02-03T12:50:22.749Z,42.1
2023-02-03T12:55:41.698Z,41.6
2023-02-03T13:01:00.645Z,41.2
2023-02-03T13:06:19.558Z,41.4
2023-02-03T13:11:39.351Z,41.3
2023-02-03T13:16:59.512Z,41.9
2023-02-03T13:22:18.398Z,41.8
2023-02-03T13:27:37.023Z,42.1
2023-02-03T13:32:56.242Z,42.1
2023-02-03T13:38:15.267Z,42.5
2023-02-03T13:43:40.102Z,43.4
2023-02-03T13:48:59.185Z,43.6
2023-02-03T13:54:17.983Z,44
2023-02-03T13:59:36.626Z,44.2
2023-02-03T14:04:55.873Z,43.6
2023-02-03T14:10:15.695Z,44.2
2023-02-03T14:15:34.473Z,43.1
2023-02-03T14:20:53.229Z,42.8
2023-02-03T14:26:11.963Z,42.9
2023-02-03T14:31:31.304Z,42.5
2023-02-03T14:36:49.725Z,42.9
2023-02-03T14:42:08.204Z,43.8
2023-02-03T14:47:27.032Z,43.7
2023-02-03T14:52:45.787Z,43.7
2023-02-03T14:58:04.155Z,43.6
2023-02-03T15:03:22.995Z,43.6
2023-02-03T15:08:41.396Z,43.3
2023-02-03T15:14:00.162Z,43.7
2023-02-03T15:19:18.194Z,44
2023-02-03T15:24:39.440Z,44.4
2023-02-03T15:30:00.819Z,44.6
2023-02-03T15:35:19.313Z,43.5
2023-02-03T15:40:38.203Z,43.7
2023-02-03T15:45:56.990Z,43.8
2023-02-03T15:51:15.785Z,43.5
2023-02-03T15:56:34.246Z,43.7
2023-02-03T16:01:53.432Z,43.9
2023-02-03T16:07:11.924Z,43.8
2023-02-03T16:12:30.725Z,43.4
2023-02-03T16:17:49.538Z,43.6
2023-02-03T16:23:08.405Z,43.3
2023-02-03T16:28:27.279Z,44
2023-02-03T16:33:45.710Z,43.4
2023-02-03T16:39:04.052Z,44.3
2023-02-03T16:44:22.538Z,44
2023-02-03T16:49:40.753Z,44.6
2023-02-03T16:54:59.267Z,43.8
2023-02-03T17:00:17.575Z,44.3
2023-02-03T17:05:36.434Z,44.4
2023-02-03T17:10:57.859Z,43.5
2023-02-03T17:16:16.814Z,44.2
2023-02-03T17:21:35.588Z,43.4
2023-02-03T17:26:54.431Z,42.6
2023-02-03T17:32:13.414Z,41.3
2023-02-03T17:37:31.997Z,41.9
2023-02-03T17:53:55.830Z,40
2023-02-03T17:59:14.558Z,39.6
2023-02-03T18:04:33.241Z,39.5
2023-02-03T18:09:51.516Z,39.4
2023-02-03T18:15:09.805Z,40.5
2023-02-03T18:20:29.696Z,39.5
2023-02-03T18:25:48.425Z,39.5
2023-02-03T18:31:06.903Z,38.8
2023-02-03T18:36:25.767Z,38.7
2023-02-03T18:41:44.605Z,39.1
2023-02-03T18:47:03.076Z,39.9
2023-02-03T18:52:21.712Z,40.1
2023-02-03T18:57:40.531Z,39.7
2023-02-03T19:02:59.323Z,39.7
2023-02-03T19:08:17.502Z,40.1
2023-02-03T19:13:35.840Z,40.2
2023-02-03T19:18:54.313Z,40.3
2023-02-03T19:24:12.841Z,40.3
2023-02-03T19:29:31.072Z,40.6
2023-02-03T19:34:49.731Z,40.4
2023-02-03T19:40:08.608Z,41.4
2023-02-03T19:45:27.284Z,41
2023-02-03T19:50:47.023Z,40.8
2023-02-03T19:56:05.527Z,41.8
2023-02-03T20:01:24.517Z,41.2
2023-02-03T20:06:42.989Z,42.1
2023-02-03T20:12:01.470Z,41.6
2023-02-03T20:17:19.790Z,42.2
2023-02-03T20:22:39.269Z,41.6
2023-02-03T20:27:57.688Z,42.3
2023-02-03T20:33:16.506Z,42.1
2023-02-03T20:38:35.021Z,42.6
2023-02-03T20:43:53.480Z,42.8
2023-02-03T20:49:13.299Z,42.9
2023-02-03T20:54:31.537Z,42.8
2023-02-03T20:59:51.186Z,42.5
2023-02-03T21:05:09.608Z,43.2
2023-02-03T21:10:29.535Z,42.7
2023-02-03T21:15:48.519Z,42.6
2023-02-03T21:21:06.804Z,43
2023-02-03T21:26:24.993Z,43.4
2023-02-03T21:31:43.017Z,42.8
2023-02-03T21:37:01.079Z,42.7
2023-02-03T21:42:19.588Z,42.7
2023-02-03T21:47:38.380Z,43.2
2023-02-03T21:52:57.176Z,43.4
2023-02-03T21:58:15.960Z,43.6
2023-02-03T22:03:34.717Z,43.9
2023-02-03T22:08:53.609Z,43.6
2023-02-03T22:14:12.456Z,43
2023-02-03T22:19:31.221Z,43.7
2023-02-03T22:24:49.465Z,42.8
2023-02-03T22:30:08.314Z,43.7
2023-02-03T22:35:26.944Z,43.1
2023-02-03T22:40:45.539Z,42.9
2023-02-03T22:46:04.109Z,42.6
2023-02-03T22:51:22.666Z,42.7
2023-02-03T22:56:41.527Z,43.4
2023-02-03T23:02:00.265Z,42.7
2023-02-03T23:07:21.778Z,43.2
2023-02-03T23:12:42.713Z,43.5
2023-02-03T23:18:02.190Z,42.7
2023-02-03T23:23:20.691Z,43.4
2023-02-03T23:28:40.757Z,43.5
2023-02-03T23:33:59.362Z,43.1
2023-02-03T23:39:17.832Z,42.6
2023-02-03T23:44:35.796Z,43.5
2023-02-03T23:49:59.091Z,43.3
2023-02-03T23:55:17.874Z,43.5
